LVLRG KATL-KBHM
Flight info
| Callsign | LVLRG |
|---|---|
| Flight time | N/A |
| Altitude | 18000 |
| Route | ATL2 WEONE AN BH OKW |
| Aircraft | B350/L-SDF/C |
Departure
| Time | N/A |
|---|---|
| Airport | Hartsfield Jackson Atlanta International Airport (KATL) |
Arrival
| Time | 2026-04-29 01:45 |
|---|---|
| Airport | Birmingham-Shuttlesworth International Airport (KBHM) |
| Time | Latitude | Longitude | Altitude | Speed | Heading |
|---|---|---|---|---|---|
| 2026-04-29 01:31 | 33.81840 | -86.95398 | 6846 ft | 282 kts | 149° |
| 2026-04-29 01:31 | 33.80158 | -86.94224 | 6688 ft | 277 kts | 156° |
| 2026-04-29 01:31 | 33.78417 | -86.93220 | 6541 ft | 273 kts | 157° |
| 2026-04-29 01:31 | 33.76741 | -86.92242 | 6396 ft | 270 kts | 156° |
| 2026-04-29 01:32 | 33.75064 | -86.91220 | 6163 ft | 271 kts | 156° |
| 2026-04-29 01:32 | 33.73383 | -86.90178 | 6024 ft | 268 kts | 156° |
| 2026-04-29 01:32 | 33.71730 | -86.89228 | 5987 ft | 262 kts | 158° |
| 2026-04-29 01:32 | 33.70112 | -86.88223 | 5942 ft | 260 kts | 149° |
| 2026-04-29 01:33 | 33.68792 | -86.86748 | 5914 ft | 261 kts | 131° |
| 2026-04-29 01:33 | 33.67806 | -86.84910 | 5937 ft | 261 kts | 121° |
| 2026-04-29 01:33 | 33.67325 | -86.82824 | 5960 ft | 264 kts | 93° |
| 2026-04-29 01:33 | 33.67490 | -86.80625 | 5937 ft | 266 kts | 83° |
| 2026-04-29 01:34 | 33.67810 | -86.78426 | 5809 ft | 269 kts | 83° |
| 2026-04-29 01:34 | 33.67915 | -86.76161 | 5555 ft | 274 kts | 93° |
| 2026-04-29 01:34 | 33.67905 | -86.73865 | 5425 ft | 275 kts | 93° |
| 2026-04-29 01:34 | 33.67918 | -86.71562 | 5254 ft | 277 kts | 91° |
| 2026-04-29 01:35 | 33.68050 | -86.69251 | 5063 ft | 279 kts | 89° |
| 2026-04-29 01:35 | 33.68181 | -86.66977 | 5066 ft | 273 kts | 89° |
| 2026-04-29 01:35 | 33.68274 | -86.64711 | 5051 ft | 270 kts | 89° |
| 2026-04-29 01:35 | 33.68742 | -86.62522 | 5033 ft | 273 kts | 60° |
| 2026-04-29 01:36 | 33.70151 | -86.61028 | 5019 ft | 273 kts | 23° |
| 2026-04-29 01:36 | 33.71968 | -86.60637 | 5044 ft | 262 kts | 351° |
| 2026-04-29 01:36 | 33.73630 | -86.61302 | 4977 ft | 253 kts | 331° |
| 2026-04-29 01:36 | 33.75359 | -86.61803 | 4705 ft | 266 kts | 359° |
| 2026-04-29 01:37 | 33.77145 | -86.61135 | 4379 ft | 276 kts | 33° |
| 2026-04-29 01:37 | 33.78476 | -86.59505 | 4250 ft | 273 kts | 60° |
| 2026-04-29 01:37 | 33.79145 | -86.57421 | 4121 ft | 265 kts | 86° |
| 2026-04-29 01:37 | 33.79044 | -86.55287 | 3894 ft | 250 kts | 112° |
| 2026-04-29 01:38 | 33.78172 | -86.53594 | 3641 ft | 235 kts | 146° |
| 2026-04-29 01:38 | 33.76747 | -86.52815 | 3417 ft | 222 kts | 172° |
| 2026-04-29 01:38 | 33.75251 | -86.52445 | 3276 ft | 216 kts | 176° |
| 2026-04-29 01:38 | 33.73792 | -86.52542 | 3109 ft | 207 kts | 197° |
| 2026-04-29 01:39 | 33.72484 | -86.53207 | 2958 ft | 203 kts | 211° |
| 2026-04-29 01:39 | 33.71316 | -86.54099 | 2942 ft | 195 kts | 209° |
| 2026-04-29 01:39 | 33.70122 | -86.54834 | 2942 ft | 189 kts | 208° |
| 2026-04-29 01:39 | 33.68988 | -86.55570 | 2971 ft | 182 kts | 209° |
| 2026-04-29 01:40 | 33.67867 | -86.56251 | 2939 ft | 180 kts | 206° |
| 2026-04-29 01:40 | 33.66889 | -86.57138 | 2906 ft | 176 kts | 228° |
| 2026-04-29 01:40 | 33.66183 | -86.58328 | 2981 ft | 172 kts | 234° |
| 2026-04-29 01:40 | 33.65550 | -86.59542 | 2948 ft | 170 kts | 235° |
| 2026-04-29 01:41 | 33.64982 | -86.60725 | 2923 ft | 153 kts | 234° |
| 2026-04-29 01:41 | 33.64413 | -86.61720 | 2872 ft | 137 kts | 229° |
| 2026-04-29 01:41 | 33.63830 | -86.62578 | 2827 ft | 128 kts | 228° |
| 2026-04-29 01:41 | 33.63368 | -86.63416 | 2797 ft | 114 kts | 234° |
| 2026-04-29 01:42 | 33.62960 | -86.64206 | 2668 ft | 113 kts | 232° |
| 2026-04-29 01:42 | 33.62523 | -86.64987 | 2515 ft | 113 kts | 229° |
| 2026-04-29 01:42 | 33.62055 | -86.65747 | 2333 ft | 113 kts | 230° |
| 2026-04-29 01:42 | 33.61607 | -86.66515 | 2202 ft | 110 kts | 225° |
| 2026-04-29 01:43 | 33.61131 | -86.67216 | 2019 ft | 108 kts | 224° |
| 2026-04-29 01:43 | 33.60714 | -86.68001 | 1851 ft | 114 kts | 233° |
| 2026-04-29 01:43 | 33.60322 | -86.68825 | 1759 ft | 113 kts | 228° |
| 2026-04-29 01:43 | 33.59860 | -86.69594 | 1633 ft | 116 kts | 229° |
| 2026-04-29 01:44 | 33.59366 | -86.70381 | 1492 ft | 119 kts | 227° |
| 2026-04-29 01:44 | 33.58866 | -86.71205 | 1337 ft | 124 kts | 233° |
| 2026-04-29 01:44 | 33.58378 | -86.72089 | 1171 ft | 132 kts | 231° |
| 2026-04-29 01:44 | 33.57859 | -86.73023 | 986 ft | 139 kts | 236° |
| 2026-04-29 01:45 | 33.57322 | -86.73961 | 712 ft | 129 kts | 235° |
| 2026-04-29 01:45 | 33.56869 | -86.74748 | 646 ft | 100 kts | 235° |
| 2026-04-29 01:45 | 33.56526 | -86.75343 | 640 ft | 77 kts | 235° |
| 2026-04-29 01:45 | 33.56337 | -86.75702 | 638 ft | 21 kts | 290° |
| 2026-04-29 01:46 | 33.56384 | -86.75720 | 637 ft | 0 kts | 241° |
| 2026-04-29 01:46 | 33.56414 | -86.75770 | 636 ft | 0 kts | 328° |
| 2026-04-29 01:46 | 33.56415 | -86.75771 | 636 ft | 0 kts | 322° |